Time;durP1;ratioP1;P1;durP2;ratioP2;P2;SDS_P1;SDS_P2;PMS_P1;PMS_P2;Temp;Humidity;BMP_temperature;BMP_pressure;BME280_temperature;BME280_humidity;BME280_pressure;Samples;Min_cycle;Max_cycle;Signal;HPM_P1;HPM_P2
2022/08/04 00:01:03;;;;;;;;;;;23.30;60.00;;;;;;4872150;29;20002;-62
2022/08/04 00:03:33;;;;;;;;;;;23.30;59.90;;;;;;4874716;29;19939;-62
2022/08/04 00:06:04;;;;;;;;;;;23.30;60.10;;;;;;4869952;29;20385;-63
2022/08/04 00:08:37;;;;;;;;;;;23.20;60.20;;;;;;4878376;29;19939;-64
2022/08/04 00:11:07;;;;;;;;;;;23.20;60.30;;;;;;4871931;29;19932;-61
2022/08/04 00:13:37;;;;;;;;;;;23.20;60.40;;;;;;4873412;29;19923;-62
2022/08/04 00:16:04;;;;;;;;;;;23.20;60.50;;;;;;4868023;29;19932;-64
2022/08/04 00:18:34;;;;;;;;;;;23.10;60.50;;;;;;4873001;29;19924;-62
2022/08/04 00:21:05;;;;;;;;;;;23.10;60.60;;;;;;4870802;29;19924;-64
2022/08/04 00:23:33;;;;;;;;;;;23.10;60.50;;;;;;4878418;29;19930;-62
2022/08/04 00:26:00;;;;;;;;;;;23.10;60.70;;;;;;4876073;29;19955;-62
2022/08/04 00:28:27;;;;;;;;;;;23.00;60.90;;;;;;4874027;29;19980;-62
2022/08/04 00:30:54;;;;;;;;;;;23.00;60.80;;;;;;4879881;29;20468;-63
2022/08/04 00:33:22;;;;;;;;;;;22.90;60.90;;;;;;4877990;29;19946;-63
2022/08/04 00:35:50;;;;;;;;;;;22.80;61.00;;;;;;4879624;29;19923;-62
2022/08/04 00:38:17;;;;;;;;;;;22.90;61.10;;;;;;4877801;29;19932;-62
2022/08/04 00:40:48;;;;;;;;;;;22.80;61.10;;;;;;4879258;29;20307;-62
2022/08/04 00:43:19;;;;;;;;;;;22.80;61.20;;;;;;4876740;29;19946;-62
2022/08/04 00:46:02;;;;;;;;;;;22.80;61.20;;;;;;4871636;29;19924;-62
2022/08/04 00:48:36;;;;;;;;;;;22.70;61.30;;;;;;4879116;29;20289;-62
2022/08/04 00:51:10;;;;;;;;;;;22.70;61.40;;;;;;4878247;29;19936;-65
2022/08/04 00:53:44;;;;;;;;;;;22.60;61.50;;;;;;4865743;29;19931;-63
2022/08/04 00:56:22;;;;;;;;;;;22.60;61.70;;;;;;4871831;29;19939;-62
2022/08/04 00:58:59;;;;;;;;;;;22.60;61.80;;;;;;4868586;29;19965;-62
2022/08/04 01:01:35;;;;;;;;;;;22.60;61.80;;;;;;4870831;29;19927;-63
2022/08/04 01:04:03;;;;;;;;;;;22.50;61.90;;;;;;4872745;29;19924;-61
2022/08/04 01:06:41;;;;;;;;;;;22.50;61.90;;;;;;4871026;29;19959;-64
2022/08/04 01:09:23;;;;;;;;;;;22.50;62.00;;;;;;4875365;29;20410;-62
2022/08/04 01:11:57;;;;;;;;;;;22.50;62.20;;;;;;4873117;29;19928;-61
2022/08/04 01:14:29;;;;;;;;;;;22.50;62.10;;;;;;4872947;29;19935;-63
2022/08/04 01:16:58;;;;;;;;;;;22.50;62.20;;;;;;4870858;29;20372;-61
2022/08/04 01:19:45;;;;;;;;;;;22.40;62.40;;;;;;4879269;29;19954;-62
2022/08/04 01:22:24;;;;;;;;;;;22.40;62.30;;;;;;4875413;29;19934;-62
2022/08/04 01:25:11;;;;;;;;;;;22.40;62.50;;;;;;4876694;29;19924;-62
2022/08/04 01:27:46;;;;;;;;;;;22.30;62.60;;;;;;4870158;29;19924;-62
2022/08/04 01:30:14;;;;;;;;;;;22.30;62.70;;;;;;4879722;29;19924;-63
2022/08/04 01:32:53;;;;;;;;;;;22.30;62.80;;;;;;4876281;29;19928;-63
2022/08/04 01:35:23;;;;;;;;;;;22.30;62.90;;;;;;4876440;29;20388;-62
2022/08/04 01:37:55;;;;;;;;;;;22.20;63.00;;;;;;4877861;29;20413;-63
2022/08/04 01:40:22;;;;;;;;;;;22.20;63.00;;;;;;4878641;29;19930;-62
2022/08/04 01:42:52;;;;;;;;;;;22.20;63.00;;;;;;4876369;29;19924;-63
2022/08/04 01:45:23;;;;;;;;;;;22.10;63.20;;;;;;4875450;29;19931;-64
2022/08/04 01:47:50;;;;;;;;;;;22.10;63.30;;;;;;4876299;29;20422;-63
2022/08/04 01:50:17;;;;;;;;;;;22.10;63.40;;;;;;4876743;29;19923;-62
2022/08/04 01:52:44;;;;;;;;;;;22.10;63.50;;;;;;4875992;29;19931;-63
2022/08/04 01:55:12;;;;;;;;;;;22.10;63.40;;;;;;4871750;29;20290;-63
2022/08/04 01:57:42;;;;;;;;;;;22.10;63.40;;;;;;4869545;29;19931;-62
2022/08/04 02:00:09;;;;;;;;;;;22.00;63.60;;;;;;4868238;29;19971;-63
2022/08/04 02:02:39;;;;;;;;;;;22.00;63.60;;;;;;4875804;29;20474;-63
2022/08/04 02:05:09;;;;;;;;;;;22.00;63.50;;;;;;4876630;29;19930;-63
2022/08/04 02:07:40;;;;;;;;;;;22.10;63.50;;;;;;4875857;29;19927;-63
2022/08/04 02:10:08;;;;;;;;;;;22.00;63.60;;;;;;4868737;29;19924;-61
2022/08/04 02:12:44;;;;;;;;;;;22.00;63.70;;;;;;4878364;29;19926;-63
2022/08/04 02:15:13;;;;;;;;;;;21.90;63.80;;;;;;4869424;29;19928;-61
2022/08/04 02:17:50;;;;;;;;;;;21.90;63.90;;;;;;4874783;29;19931;-63
2022/08/04 02:20:23;;;;;;;;;;;21.80;64.10;;;;;;4878443;29;19981;-63
2022/08/04 02:22:52;;;;;;;;;;;21.80;64.00;;;;;;4875298;29;20410;-60
2022/08/04 02:25:22;;;;;;;;;;;21.80;63.90;;;;;;4875367;29;19931;-61
2022/08/04 02:27:54;;;;;;;;;;;21.80;63.90;;;;;;4867999;29;19932;-61
2022/08/04 02:30:22;;;;;;;;;;;21.80;64.00;;;;;;4878278;29;19924;-61
2022/08/04 02:32:52;;;;;;;;;;;21.80;64.00;;;;;;4874837;29;20010;-63
2022/08/04 02:35:24;;;;;;;;;;;21.70;64.20;;;;;;4876713;29;19924;-62
2022/08/04 02:37:57;;;;;;;;;;;21.70;64.20;;;;;;4879040;29;19924;-61
2022/08/04 02:40:24;;;;;;;;;;;21.70;64.30;;;;;;4877143;29;20374;-62
2022/08/04 02:42:53;;;;;;;;;;;21.70;64.30;;;;;;4877846;29;19923;-61
2022/08/04 02:45:21;;;;;;;;;;;21.70;64.30;;;;;;4876481;29;19924;-63
2022/08/04 02:47:48;;;;;;;;;;;21.70;64.40;;;;;;4878027;29;19932;-62
2022/08/04 02:50:18;;;;;;;;;;;21.60;64.40;;;;;;4876754;29;20282;-61
2022/08/04 02:52:45;;;;;;;;;;;21.60;64.40;;;;;;4879767;29;19928;-63
2022/08/04 02:55:13;;;;;;;;;;;21.60;64.50;;;;;;4880042;29;19928;-63
2022/08/04 02:57:41;;;;;;;;;;;21.60;64.50;;;;;;4874826;29;19927;-62
2022/08/04 03:00:09;;;;;;;;;;;21.60;64.40;;;;;;4876453;29;19923;-62
2022/08/04 03:02:42;;;;;;;;;;;21.60;64.40;;;;;;4880122;29;20014;-63
2022/08/04 03:05:14;;;;;;;;;;;21.60;64.50;;;;;;4879463;29;20019;-63
2022/08/04 03:07:55;;;;;;;;;;;21.60;64.70;;;;;;4875792;29;19963;-64
2022/08/04 03:10:55;;;;;;;;;;;21.60;64.70;;;;;;4874349;29;19924;-63
2022/08/04 03:13:38;;;;;;;;;;;21.50;64.80;;;;;;4874900;29;20331;-64
2022/08/04 03:16:23;;;;;;;;;;;21.60;64.80;;;;;;4879211;29;19924;-62
2022/08/04 03:19:23;;;;;;;;;;;21.50;64.80;;;;;;4872862;29;20574;-63
2022/08/04 03:22:00;;;;;;;;;;;21.50;64.80;;;;;;4838645;29;20410;-63
2022/08/04 03:24:44;;;;;;;;;;;21.50;64.70;;;;;;4838639;29;20383;-63
2022/08/04 03:27:21;;;;;;;;;;;21.50;64.70;;;;;;4859301;29;19931;-64
2022/08/04 03:30:07;;;;;;;;;;;21.50;64.80;;;;;;4872479;29;20406;-61
2022/08/04 03:32:52;;;;;;;;;;;21.40;64.90;;;;;;4878776;29;20386;-63
2022/08/04 03:35:29;;;;;;;;;;;21.40;65.20;;;;;;4879142;29;19924;-64
2022/08/04 03:38:14;;;;;;;;;;;21.30;65.30;;;;;;4873889;29;19924;-62
2022/08/04 03:40:51;;;;;;;;;;;21.30;65.30;;;;;;4872965;29;19924;-62
2022/08/04 03:43:28;;;;;;;;;;;21.30;65.30;;;;;;4880175;29;19923;-63
2022/08/04 03:46:07;;;;;;;;;;;21.30;65.30;;;;;;4875185;29;19940;-61
2022/08/04 03:48:51;;;;;;;;;;;21.30;65.20;;;;;;4878209;29;19924;-63
2022/08/04 03:54:30;;;;;;;;;;;21.30;65.30;;;;;;4880163;29;19924;-61
2022/08/04 03:57:06;;;;;;;;;;;21.20;65.40;;;;;;4876316;29;19984;-62
2022/08/04 03:59:42;;;;;;;;;;;21.20;65.50;;;;;;4879915;29;20354;-62
2022/08/04 04:02:21;;;;;;;;;;;21.20;65.50;;;;;;4872489;29;19932;-63
2022/08/04 04:05:11;;;;;;;;;;;21.20;65.50;;;;;;4877170;29;19946;-63
2022/08/04 04:07:53;;;;;;;;;;;21.10;65.80;;;;;;4877587;29;19959;-62
2022/08/04 04:10:26;;;;;;;;;;;21.10;65.80;;;;;;4878617;29;19930;-62
2022/08/04 04:13:18;;;;;;;;;;;21.10;65.90;;;;;;4872999;29;19925;-62
2022/08/04 04:15:59;;;;;;;;;;;21.10;66.00;;;;;;4875658;29;19924;-63
2022/08/04 04:18:47;;;;;;;;;;;21.10;66.20;;;;;;4872435;29;19928;-61
2022/08/04 04:21:24;;;;;;;;;;;21.10;66.30;;;;;;4870891;29;19924;-61
2022/08/04 04:24:01;;;;;;;;;;;21.10;66.40;;;;;;4875791;29;20276;-62
2022/08/04 04:26:40;;;;;;;;;;;21.10;66.40;;;;;;4878199;29;19924;-61
2022/08/04 04:29:17;;;;;;;;;;;21.00;66.50;;;;;;4878302;29;19924;-61
2022/08/04 04:31:53;;;;;;;;;;;21.00;66.60;;;;;;4879925;29;19923;-62
2022/08/04 04:34:26;;;;;;;;;;;21.00;66.60;;;;;;4876735;29;19924;-63
2022/08/04 04:37:01;;;;;;;;;;;21.10;66.40;;;;;;4873978;29;19934;-64
2022/08/04 04:39:32;;;;;;;;;;;21.10;66.30;;;;;;4872869;29;19946;-62
2022/08/04 04:42:06;;;;;;;;;;;21.10;66.70;;;;;;4878168;29;19999;-62
2022/08/04 04:44:46;;;;;;;;;;;21.20;66.80;;;;;;4878180;29;19927;-63
2022/08/04 04:47:18;;;;;;;;;;;21.20;66.60;;;;;;4879667;29;19934;-62
2022/08/04 04:49:48;;;;;;;;;;;21.20;66.40;;;;;;4877031;29;19923;-62
2022/08/04 04:52:21;;;;;;;;;;;21.30;66.30;;;;;;4875837;29;20262;-61
2022/08/04 04:54:52;;;;;;;;;;;21.30;66.20;;;;;;4872948;29;19924;-64
2022/08/04 04:57:20;;;;;;;;;;;21.30;66.20;;;;;;4873959;29;19959;-64
2022/08/04 04:59:49;;;;;;;;;;;21.40;66.10;;;;;;4873105;29;19932;-62
2022/08/04 05:02:31;;;;;;;;;;;21.40;65.90;;;;;;4868515;29;19935;-62
2022/08/04 05:05:16;;;;;;;;;;;21.40;65.80;;;;;;4868675;29;19924;-63
2022/08/04 05:07:57;;;;;;;;;;;21.50;65.80;;;;;;4872831;29;19935;-64
2022/08/04 05:10:34;;;;;;;;;;;21.50;65.70;;;;;;4873056;29;20290;-63
2022/08/04 05:13:10;;;;;;;;;;;21.50;65.60;;;;;;4873717;29;19924;-63
2022/08/04 05:15:39;;;;;;;;;;;21.60;65.70;;;;;;4874552;29;19923;-63
2022/08/04 05:18:08;;;;;;;;;;;21.60;65.60;;;;;;4871392;29;19927;-64
2022/08/04 05:20:38;;;;;;;;;;;21.60;65.60;;;;;;4870607;29;19999;-62
2022/08/04 05:23:09;;;;;;;;;;;21.60;65.50;;;;;;4871993;29;19963;-63
2022/08/04 05:25:37;;;;;;;;;;;21.60;65.60;;;;;;4872976;29;19979;-63
2022/08/04 05:28:06;;;;;;;;;;;21.70;65.30;;;;;;4876307;29;19935;-63
2022/08/04 05:30:34;;;;;;;;;;;21.70;65.40;;;;;;4877367;29;19932;-63
2022/08/04 05:33:03;;;;;;;;;;;21.70;65.10;;;;;;4878940;29;20283;-63
2022/08/04 05:35:33;;;;;;;;;;;21.80;64.90;;;;;;4876453;29;20445;-63
2022/08/04 05:38:02;;;;;;;;;;;21.80;64.50;;;;;;4862842;29;19924;-63
2022/08/04 05:40:29;;;;;;;;;;;21.90;64.40;;;;;;4877004;29;19978;-63
2022/08/04 05:42:56;;;;;;;;;;;21.90;64.10;;;;;;4878119;29;19924;-62
2022/08/04 05:45:23;;;;;;;;;;;21.90;64.00;;;;;;4878503;29;19975;-63
2022/08/04 05:47:51;;;;;;;;;;;22.00;63.90;;;;;;4876526;29;19927;-62
2022/08/04 05:50:19;;;;;;;;;;;22.10;63.90;;;;;;4878649;29;19928;-61
2022/08/04 05:52:47;;;;;;;;;;;22.10;63.90;;;;;;4878203;29;20386;-62
2022/08/04 05:55:16;;;;;;;;;;;22.10;63.70;;;;;;4876620;29;19971;-62
2022/08/04 05:57:43;;;;;;;;;;;22.20;63.70;;;;;;4877941;29;20294;-63
2022/08/04 06:00:10;;;;;;;;;;;22.20;63.50;;;;;;4873900;29;19954;-62
2022/08/04 06:02:37;;;;;;;;;;;22.10;63.70;;;;;;4877819;29;19930;-62
2022/08/04 06:05:06;;;;;;;;;;;22.20;63.50;;;;;;4879538;29;19928;-63
2022/08/04 06:07:33;;;;;;;;;;;22.20;63.70;;;;;;4880185;29;19924;-64
2022/08/04 06:10:00;;;;;;;;;;;22.20;63.70;;;;;;4874051;29;19931;-64
2022/08/04 06:12:32;;;;;;;;;;;22.30;63.70;;;;;;4889227;29;20010;-62
2022/08/04 06:14:59;;;;;;;;;;;22.30;63.90;;;;;;4873389;29;20389;-62
2022/08/04 06:17:30;;;;;;;;;;;22.30;63.70;;;;;;4876277;29;19930;-64
2022/08/04 06:19:57;;;;;;;;;;;22.40;63.60;;;;;;4871275;29;20285;-63
2022/08/04 06:22:24;;;;;;;;;;;22.50;63.60;;;;;;4872792;29;19963;-62
2022/08/04 06:24:52;;;;;;;;;;;22.50;63.70;;;;;;4878216;29;19931;-63
2022/08/04 06:27:19;;;;;;;;;;;22.60;63.50;;;;;;4877858;29;20398;-64
2022/08/04 06:29:48;;;;;;;;;;;22.60;63.30;;;;;;4876938;29;19924;-62
2022/08/04 06:32:26;;;;;;;;;;;22.60;63.50;;;;;;4877519;29;19927;-63
2022/08/04 06:34:54;;;;;;;;;;;22.70;63.40;;;;;;4880422;29;20498;-62
2022/08/04 06:37:21;;;;;;;;;;;22.80;63.30;;;;;;4878069;29;19927;-62
2022/08/04 06:39:48;;;;;;;;;;;22.80;63.20;;;;;;4877008;29;19931;-61
2022/08/04 06:42:16;;;;;;;;;;;22.90;63.40;;;;;;4880980;29;19947;-62
2022/08/04 06:44:46;;;;;;;;;;;23.00;63.30;;;;;;4881188;29;19929;-63
2022/08/04 06:47:18;;;;;;;;;;;23.10;63.30;;;;;;4876397;29;21600;-62
2022/08/04 06:49:45;;;;;;;;;;;23.10;63.20;;;;;;4874183;29;19965;-63
2022/08/04 06:52:16;;;;;;;;;;;23.30;63.20;;;;;;4879453;29;19927;-60
2022/08/04 06:54:43;;;;;;;;;;;23.40;62.80;;;;;;4876116;29;20002;-63
2022/08/04 06:57:11;;;;;;;;;;;23.50;62.80;;;;;;4879657;29;19928;-63
2022/08/04 06:59:40;;;;;;;;;;;23.70;62.50;;;;;;4878437;29;19930;-63
2022/08/04 07:02:08;;;;;;;;;;;23.90;62.50;;;;;;4877234;29;19923;-64
2022/08/04 07:04:36;;;;;;;;;;;24.00;62.20;;;;;;4878920;29;19927;-62
2022/08/04 07:07:03;;;;;;;;;;;24.10;61.70;;;;;;4879888;29;20423;-63
2022/08/04 07:09:30;;;;;;;;;;;24.30;61.60;;;;;;4880899;29;19988;-61
2022/08/04 07:11:58;;;;;;;;;;;24.50;60.90;;;;;;4873319;29;19930;-63
2022/08/04 07:14:25;;;;;;;;;;;24.60;60.80;;;;;;4877520;29;19934;-64
2022/08/04 07:16:53;;;;;;;;;;;24.80;60.40;;;;;;4875521;29;20393;-62
2022/08/04 07:19:20;;;;;;;;;;;25.00;59.30;;;;;;4880896;29;19977;-62
2022/08/04 07:21:48;;;;;;;;;;;25.20;58.30;;;;;;4878092;29;20022;-62
2022/08/04 07:24:16;;;;;;;;;;;25.40;57.60;;;;;;4876177;29;19928;-62
2022/08/04 07:26:42;;;;;;;;;;;25.50;57.20;;;;;;4881370;29;19931;-62
2022/08/04 07:29:10;;;;;;;;;;;25.60;56.60;;;;;;4879343;29;19924;-62
2022/08/04 07:31:37;;;;;;;;;;;25.80;55.20;;;;;;4878789;29;19924;-62
2022/08/04 07:34:04;;;;;;;;;;;26.00;54.60;;;;;;4881116;29;19924;-62
2022/08/04 07:36:31;;;;;;;;;;;26.10;54.50;;;;;;4880784;29;19979;-63
2022/08/04 07:38:59;;;;;;;;;;;26.30;54.40;;;;;;4877452;29;19947;-62
2022/08/04 07:41:26;;;;;;;;;;;26.30;54.20;;;;;;4877941;29;20327;-62
2022/08/04 07:43:53;;;;;;;;;;;26.30;54.20;;;;;;4879110;29;19930;-63
2022/08/04 07:46:20;;;;;;;;;;;26.50;53.20;;;;;;4877270;29;19928;-62
2022/08/04 07:48:47;;;;;;;;;;;26.60;53.20;;;;;;4871735;29;19928;-62
2022/08/04 07:51:14;;;;;;;;;;;26.80;52.00;;;;;;4880836;29;19923;-62
2022/08/04 07:53:42;;;;;;;;;;;27.00;52.00;;;;;;4875039;29;20069;-62
2022/08/04 07:56:10;;;;;;;;;;;27.10;51.70;;;;;;4879601;29;20293;-62
2022/08/04 07:58:37;;;;;;;;;;;27.20;50.70;;;;;;4877819;29;19945;-63
2022/08/04 08:01:04;;;;;;;;;;;27.40;50.90;;;;;;4877936;29;19930;-63
2022/08/04 08:03:31;;;;;;;;;;;27.50;51.00;;;;;;4872028;29;19924;-61
2022/08/04 08:05:58;;;;;;;;;;;27.70;50.30;;;;;;4869917;29;19923;-62
2022/08/04 08:08:24;;;;;;;;;;;27.90;50.50;;;;;;4874515;29;19924;-62
2022/08/04 08:10:52;;;;;;;;;;;28.00;50.50;;;;;;4877682;29;19928;-61
2022/08/04 08:13:20;;;;;;;;;;;28.10;50.00;;;;;;4871823;29;19950;-65
2022/08/04 08:15:48;;;;;;;;;;;28.20;49.60;;;;;;4875939;29;20291;-63
2022/08/04 08:18:14;;;;;;;;;;;28.30;49.50;;;;;;4875467;29;19930;-62
2022/08/04 08:20:44;;;;;;;;;;;28.40;48.70;;;;;;4875586;29;19964;-63
2022/08/04 08:23:11;;;;;;;;;;;28.50;48.90;;;;;;4872684;29;19923;-63
2022/08/04 08:25:38;;;;;;;;;;;28.70;49.00;;;;;;4877638;29;19928;-63
2022/08/04 08:28:05;;;;;;;;;;;28.70;48.80;;;;;;4876216;29;19934;-61
2022/08/04 08:30:34;;;;;;;;;;;28.80;48.90;;;;;;4876284;29;19924;-63
2022/08/04 08:33:02;;;;;;;;;;;29.00;48.40;;;;;;4875282;29;19962;-62
2022/08/04 08:35:32;;;;;;;;;;;29.10;47.10;;;;;;4873813;29;19924;-62
2022/08/04 08:38:01;;;;;;;;;;;29.30;47.40;;;;;;4872339;29;19966;-63
2022/08/04 08:40:29;;;;;;;;;;;29.40;47.50;;;;;;4879090;29;19930;-62
2022/08/04 08:43:15;;;;;;;;;;;29.40;47.40;;;;;;4878642;29;19991;-64
2022/08/04 08:45:50;;;;;;;;;;;29.50;47.00;;;;;;4878001;29;19949;-61
2022/08/04 08:48:21;;;;;;;;;;;29.60;46.00;;;;;;4875595;29;19928;-63
2022/08/04 08:50:55;;;;;;;;;;;29.80;45.10;;;;;;4875835;29;19972;-63
2022/08/04 08:53:30;;;;;;;;;;;29.90;44.80;;;;;;4879406;29;20014;-62
2022/08/04 08:56:08;;;;;;;;;;;30.00;45.00;;;;;;4879149;29;20015;-63
2022/08/04 08:58:42;;;;;;;;;;;30.20;44.50;;;;;;4877839;29;20274;-63
2022/08/04 09:01:21;;;;;;;;;;;30.30;44.30;;;;;;4874301;29;19924;-63
2022/08/04 09:04:09;;;;;;;;;;;30.40;44.20;;;;;;4872116;29;19924;-62
2022/08/04 09:06:47;;;;;;;;;;;30.50;43.60;;;;;;4874809;29;19923;-62
2022/08/04 09:09:29;;;;;;;;;;;30.60;43.60;;;;;;4873723;29;19923;-61
2022/08/04 09:11:58;;;;;;;;;;;30.60;43.30;;;;;;4862937;29;20410;-61
2022/08/04 09:14:28;;;;;;;;;;;30.70;43.50;;;;;;4878471;29;19924;-61
2022/08/04 09:16:58;;;;;;;;;;;30.70;43.40;;;;;;4878421;29;19946;-62
2022/08/04 09:19:27;;;;;;;;;;;30.80;43.50;;;;;;4878846;29;19930;-64
2022/08/04 09:21:58;;;;;;;;;;;30.90;43.50;;;;;;4879261;29;20409;-62
2022/08/04 09:24:29;;;;;;;;;;;30.90;43.60;;;;;;4877118;29;19924;-62
2022/08/04 09:26:58;;;;;;;;;;;31.00;43.10;;;;;;4877501;29;19931;-63
2022/08/04 09:29:30;;;;;;;;;;;31.10;43.10;;;;;;4877038;29;20412;-63
2022/08/04 09:32:04;;;;;;;;;;;31.20;43.10;;;;;;4873619;29;20310;-62
2022/08/04 09:34:39;;;;;;;;;;;31.30;42.20;;;;;;4878060;29;20022;-62
2022/08/04 09:37:12;;;;;;;;;;;31.40;42.40;;;;;;4879319;29;19923;-62
2022/08/04 09:39:43;;;;;;;;;;;31.50;41.80;;;;;;4878497;29;19976;-63
2022/08/04 09:42:18;;;;;;;;;;;31.50;42.10;;;;;;4877211;29;19931;-63
2022/08/04 09:44:52;;;;;;;;;;;31.50;41.60;;;;;;4873940;29;19951;-62
2022/08/04 09:47:24;;;;;;;;;;;31.60;40.20;;;;;;4878742;29;20339;-63
2022/08/04 09:49:55;;;;;;;;;;;31.80;38.60;;;;;;4876188;29;19927;-64
2022/08/04 09:52:26;;;;;;;;;;;31.90;39.30;;;;;;4874462;29;19928;-63
2022/08/04 09:54:59;;;;;;;;;;;31.90;37.50;;;;;;4876619;29;19931;-64
2022/08/04 09:57:34;;;;;;;;;;;32.00;36.60;;;;;;4876954;29;20271;-64
2022/08/04 10:00:02;;;;;;;;;;;32.10;37.00;;;;;;4880064;29;19931;-63
2022/08/04 10:02:42;;;;;;;;;;;32.10;37.10;;;;;;4875364;29;19931;-64
2022/08/04 10:05:12;;;;;;;;;;;32.30;36.40;;;;;;4881727;29;19924;-64
2022/08/04 10:07:48;;;;;;;;;;;32.40;36.30;;;;;;4870942;29;19923;-63
2022/08/04 10:10:29;;;;;;;;;;;32.40;35.20;;;;;;4880903;29;19923;-65
2022/08/04 10:13:21;;;;;;;;;;;32.60;34.80;;;;;;4872544;29;19923;-63
2022/08/04 10:15:52;;;;;;;;;;;32.80;32.90;;;;;;4873369;29;19935;-63
2022/08/04 10:18:27;;;;;;;;;;;32.80;34.30;;;;;;4877540;29;20259;-64
2022/08/04 10:21:04;;;;;;;;;;;32.80;34.50;;;;;;4877349;29;20018;-63
2022/08/04 10:23:38;;;;;;;;;;;32.80;35.40;;;;;;4881925;29;19932;-64
2022/08/04 10:26:15;;;;;;;;;;;32.80;35.70;;;;;;4881382;29;19955;-65
2022/08/04 10:28:44;;;;;;;;;;;32.80;35.50;;;;;;4869415;29;19934;-63
2022/08/04 10:31:13;;;;;;;;;;;32.70;35.20;;;;;;4877524;29;20486;-64
2022/08/04 10:33:43;;;;;;;;;;;32.90;34.10;;;;;;4882456;29;19923;-63
2022/08/04 10:36:11;;;;;;;;;;;33.00;33.90;;;;;;4880229;29;19924;-63
2022/08/04 10:38:45;;;;;;;;;;;33.00;34.00;;;;;;4872775;29;19924;-64
2022/08/04 10:41:16;;;;;;;;;;;33.20;32.80;;;;;;4881293;29;19924;-63
2022/08/04 10:43:46;;;;;;;;;;;33.20;34.20;;;;;;4882049;29;19924;-63
2022/08/04 10:46:15;;;;;;;;;;;33.10;34.20;;;;;;4875155;29;19932;-64
2022/08/04 10:48:47;;;;;;;;;;;33.10;34.50;;;;;;4874640;29;19924;-63
2022/08/04 10:51:21;;;;;;;;;;;33.10;34.10;;;;;;4881054;29;19989;-62
2022/08/04 10:53:52;;;;;;;;;;;33.20;34.40;;;;;;4875478;29;19937;-63
2022/08/04 10:56:22;;;;;;;;;;;33.30;34.50;;;;;;4870355;29;19924;-63
2022/08/04 10:58:51;;;;;;;;;;;33.20;35.20;;;;;;4870642;29;19949;-62
2022/08/04 11:01:21;;;;;;;;;;;33.20;35.00;;;;;;4877132;29;19950;-64
2022/08/04 11:03:56;;;;;;;;;;;33.30;35.10;;;;;;4877882;29;20016;-64
2022/08/04 11:06:23;;;;;;;;;;;33.40;35.60;;;;;;4873451;29;20366;-63
2022/08/04 11:08:52;;;;;;;;;;;33.40;35.60;;;;;;4873227;29;19928;-63
2022/08/04 11:11:22;;;;;;;;;;;33.50;35.60;;;;;;4872151;29;19924;-63
2022/08/04 11:13:52;;;;;;;;;;;33.40;35.40;;;;;;4881300;29;20011;-63
2022/08/04 11:16:21;;;;;;;;;;;33.50;35.30;;;;;;4880765;29;19983;-62
2022/08/04 11:18:53;;;;;;;;;;;33.50;35.30;;;;;;4879525;29;19927;-63
2022/08/04 11:21:25;;;;;;;;;;;33.60;35.00;;;;;;4877614;29;19934;-63
2022/08/04 11:23:59;;;;;;;;;;;33.60;35.30;;;;;;4875266;29;19923;-63
2022/08/04 11:26:32;;;;;;;;;;;33.60;35.40;;;;;;4873392;29;19931;-63
2022/08/04 11:29:04;;;;;;;;;;;33.70;34.50;;;;;;4878423;29;20358;-63
2022/08/04 11:31:32;;;;;;;;;;;33.80;34.70;;;;;;4870282;29;19940;-66
2022/08/04 11:34:03;;;;;;;;;;;33.80;35.30;;;;;;4875307;29;19923;-63
2022/08/04 11:36:34;;;;;;;;;;;33.80;34.80;;;;;;4878135;29;19978;-64
2022/08/04 11:39:06;;;;;;;;;;;33.90;35.00;;;;;;4873276;29;20373;-63
2022/08/04 11:41:37;;;;;;;;;;;33.90;35.30;;;;;;4865654;29;19924;-61
2022/08/04 11:44:05;;;;;;;;;;;33.80;35.40;;;;;;4879409;29;19924;-64
2022/08/04 11:46:35;;;;;;;;;;;33.80;35.30;;;;;;4874181;29;19927;-63
2022/08/04 11:49:05;;;;;;;;;;;33.80;35.30;;;;;;4877127;29;20630;-65
2022/08/04 11:51:34;;;;;;;;;;;33.80;35.40;;;;;;4878657;29;19930;-63
2022/08/04 11:54:01;;;;;;;;;;;33.60;35.30;;;;;;4873529;29;19930;-64
2022/08/04 11:56:28;;;;;;;;;;;33.50;35.40;;;;;;4874934;29;19934;-64
2022/08/04 11:58:56;;;;;;;;;;;33.50;35.60;;;;;;4879338;29;19945;-64
2022/08/04 12:01:28;;;;;;;;;;;33.30;35.20;;;;;;4869305;29;19946;-63
2022/08/04 12:04:00;;;;;;;;;;;33.30;35.80;;;;;;4866699;29;19924;-62
2022/08/04 12:06:30;;;;;;;;;;;33.50;35.80;;;;;;4875381;29;19967;-63
2022/08/04 12:09:02;;;;;;;;;;;33.50;36.00;;;;;;4873860;29;20395;-64
2022/08/04 12:11:37;;;;;;;;;;;33.50;35.90;;;;;;4875151;29;20392;-62
2022/08/04 12:14:10;;;;;;;;;;;33.60;35.70;;;;;;4874015;29;19966;-63
2022/08/04 12:16:41;;;;;;;;;;;33.60;35.40;;;;;;4875468;29;19932;-62
2022/08/04 12:19:11;;;;;;;;;;;33.70;35.50;;;;;;4875695;29;20343;-64
2022/08/04 12:21:40;;;;;;;;;;;33.60;36.00;;;;;;4871624;29;19939;-62
2022/08/04 12:24:15;;;;;;;;;;;33.60;35.90;;;;;;4877189;29;19931;-64
2022/08/04 12:26:42;;;;;;;;;;;33.60;36.00;;;;;;4875352;29;20379;-64
2022/08/04 12:29:11;;;;;;;;;;;33.50;35.90;;;;;;4874518;29;19972;-62
2022/08/04 12:31:41;;;;;;;;;;;33.60;36.00;;;;;;4874007;29;19991;-62
2022/08/04 12:34:13;;;;;;;;;;;33.60;35.40;;;;;;4878240;29;19931;-63
2022/08/04 12:36:42;;;;;;;;;;;33.70;35.90;;;;;;4878845;29;19927;-63
2022/08/04 12:39:11;;;;;;;;;;;33.60;35.50;;;;;;4872626;29;19946;-63
2022/08/04 12:41:42;;;;;;;;;;;33.60;35.50;;;;;;4878861;29;19928;-63
2022/08/04 12:44:10;;;;;;;;;;;33.60;36.00;;;;;;4877530;29;19939;-63
2022/08/04 12:46:37;;;;;;;;;;;33.60;35.70;;;;;;4873398;29;19930;-63
2022/08/04 12:49:04;;;;;;;;;;;33.60;36.00;;;;;;4875698;29;19927;-65
2022/08/04 12:51:36;;;;;;;;;;;33.50;36.10;;;;;;4878278;29;19931;-63
2022/08/04 12:54:04;;;;;;;;;;;33.60;35.70;;;;;;4873939;29;20264;-64
2022/08/04 12:56:31;;;;;;;;;;;33.60;36.00;;;;;;4875516;29;19952;-63
2022/08/04 12:59:02;;;;;;;;;;;33.70;34.60;;;;;;4879029;29;19984;-63
2022/08/04 13:01:29;;;;;;;;;;;33.80;35.80;;;;;;4865782;29;20401;-63
2022/08/04 13:03:57;;;;;;;;;;;33.60;36.30;;;;;;4876033;29;19928;-63
2022/08/04 13:06:25;;;;;;;;;;;33.60;36.40;;;;;;4879786;29;19927;-63
2022/08/04 13:08:53;;;;;;;;;;;33.70;34.70;;;;;;4870226;29;19924;-65
2022/08/04 13:11:21;;;;;;;;;;;33.90;35.30;;;;;;4876137;29;19954;-64
2022/08/04 13:13:50;;;;;;;;;;;33.70;35.10;;;;;;4876766;29;20022;-66
2022/08/04 13:16:18;;;;;;;;;;;33.60;35.50;;;;;;4876856;29;19923;-63
2022/08/04 13:18:46;;;;;;;;;;;33.60;35.60;;;;;;4876645;29;20278;-63
2022/08/04 13:21:14;;;;;;;;;;;33.50;35.70;;;;;;4872484;29;19930;-64
2022/08/04 13:23:44;;;;;;;;;;;33.50;35.90;;;;;;4878765;29;20414;-63
2022/08/04 13:26:11;;;;;;;;;;;33.60;35.70;;;;;;4873625;29;19934;-65
2022/08/04 13:28:40;;;;;;;;;;;33.60;36.10;;;;;;4871788;29;20013;-63
2022/08/04 13:31:08;;;;;;;;;;;33.50;36.10;;;;;;4877128;29;19956;-64
2022/08/04 13:33:38;;;;;;;;;;;33.50;36.00;;;;;;4878167;29;19924;-64
2022/08/04 13:36:06;;;;;;;;;;;33.50;35.50;;;;;;4877643;29;19923;-63
2022/08/04 13:38:34;;;;;;;;;;;33.50;36.00;;;;;;4871965;29;19924;-64
2022/08/04 13:41:02;;;;;;;;;;;33.50;36.20;;;;;;4875854;29;20286;-62
2022/08/04 13:43:30;;;;;;;;;;;33.50;36.50;;;;;;4876413;29;20011;-63
2022/08/04 13:46:01;;;;;;;;;;;33.40;36.50;;;;;;4877021;29;19924;-63
2022/08/04 13:48:31;;;;;;;;;;;33.40;35.80;;;;;;4875416;29;19923;-63
2022/08/04 13:51:03;;;;;;;;;;;33.40;36.70;;;;;;4874585;29;19923;-64
2022/08/04 13:53:31;;;;;;;;;;;33.50;35.80;;;;;;4876258;29;19927;-63
2022/08/04 13:55:59;;;;;;;;;;;33.50;34.90;;;;;;4873130;29;19924;-63
2022/08/04 13:58:29;;;;;;;;;;;33.50;33.60;;;;;;4876760;29;19987;-64
2022/08/04 14:00:58;;;;;;;;;;;33.60;34.70;;;;;;4869647;29;20705;-63
2022/08/04 14:03:30;;;;;;;;;;;33.50;35.40;;;;;;4877686;29;19924;-63
2022/08/04 14:06:17;;;;;;;;;;;33.60;34.20;;;;;;4873564;29;19931;-64
2022/08/04 14:08:51;;;;;;;;;;;33.50;33.90;;;;;;4870726;29;20300;-65
2022/08/04 14:11:19;;;;;;;;;;;33.40;36.00;;;;;;4873065;29;19931;-63
2022/08/04 14:13:46;;;;;;;;;;;33.20;35.60;;;;;;4868984;29;19927;-63
2022/08/04 14:16:17;;;;;;;;;;;33.20;35.70;;;;;;4877175;29;19924;-63
2022/08/04 14:18:43;;;;;;;;;;;33.20;36.10;;;;;;4870694;29;19924;-64
2022/08/04 14:21:10;;;;;;;;;;;33.20;35.80;;;;;;4874145;29;19923;-64
2022/08/04 14:23:40;;;;;;;;;;;33.20;35.60;;;;;;4877170;29;19979;-64
2022/08/04 14:26:13;;;;;;;;;;;33.10;36.10;;;;;;4872324;29;19928;-64
2022/08/04 14:28:40;;;;;;;;;;;33.10;35.60;;;;;;4871980;29;20026;-63
2022/08/04 14:31:10;;;;;;;;;;;33.10;35.90;;;;;;4877673;29;19931;-64
2022/08/04 14:33:38;;;;;;;;;;;33.20;33.10;;;;;;4870926;29;20027;-64
2022/08/04 14:36:05;;;;;;;;;;;33.40;35.60;;;;;;4874578;29;19924;-65
2022/08/04 14:38:43;;;;;;;;;;;33.30;34.30;;;;;;4869777;29;19967;-65
2022/08/04 14:41:10;;;;;;;;;;;33.40;33.20;;;;;;4875765;29;19966;-62
2022/08/04 14:43:41;;;;;;;;;;;33.50;34.00;;;;;;4876814;29;19923;-64